createdAt,value
2022-08-11T07:16:51.273Z,16.59
2022-08-11T07:17:52.267Z,16.65
2022-08-11T07:18:52.181Z,16.71
2022-08-11T07:19:52.359Z,16.78
2022-08-11T07:20:52.355Z,16.86
2022-08-11T07:22:01.705Z,16.92
2022-08-11T07:22:52.544Z,16.99
2022-08-11T07:23:52.590Z,17.06
2022-08-11T07:24:59.460Z,17.13
2022-08-11T07:25:52.758Z,17.15
2022-08-11T07:26:52.873Z,17.23
2022-08-11T07:27:52.955Z,17.26
2022-08-11T07:28:53.003Z,17.32
2022-08-11T07:29:53.110Z,17.35
2022-08-11T07:30:54.130Z,17.41
2022-08-11T07:31:53.278Z,17.44
2022-08-11T07:32:53.380Z,17.50
2022-08-11T07:34:07.401Z,17.53
2022-08-11T07:34:53.531Z,17.57
2022-08-11T07:35:53.584Z,17.63
2022-08-11T07:36:53.727Z,17.67
2022-08-11T07:38:01.819Z,17.70
2022-08-11T07:38:53.826Z,17.74
2022-08-11T07:39:53.988Z,17.78
2022-08-11T07:40:53.975Z,17.82
2022-08-11T07:41:54.089Z,17.85
2022-08-11T07:42:54.151Z,17.89
2022-08-11T07:43:54.206Z,17.92
2022-08-11T07:44:54.298Z,17.97
2022-08-11T07:45:55.109Z,17.99
2022-08-11T07:46:59.187Z,18.03
2022-08-11T07:47:54.560Z,18.06
2022-08-11T07:48:54.646Z,18.10
2022-08-11T07:49:54.740Z,18.15
2022-08-11T07:50:56.238Z,18.17
2022-08-11T07:51:54.984Z,18.19
2022-08-11T07:52:54.992Z,18.22
2022-08-11T07:54:03.024Z,18.25
2022-08-11T07:54:55.170Z,18.28
2022-08-11T07:55:55.210Z,18.29
2022-08-11T07:57:09.454Z,18.34
2022-08-11T07:58:14.923Z,18.36
2022-08-11T07:58:59.190Z,18.39
2022-08-11T07:59:57.578Z,18.40
2022-08-11T08:00:55.613Z,18.43
2022-08-11T08:01:55.790Z,18.46
2022-08-11T08:02:55.801Z,18.47
2022-08-11T08:03:55.844Z,18.49
2022-08-11T08:06:35.695Z,18.52
2022-08-11T08:07:14.819Z,18.54
2022-08-11T08:08:14.933Z,18.55
2022-08-11T08:09:15.934Z,18.57
2022-08-11T08:10:16.167Z,18.58
2022-08-11T08:11:15.158Z,18.61
2022-08-11T08:12:15.358Z,18.64
2022-08-11T08:13:15.355Z,18.64
2022-08-11T08:14:15.403Z,18.67
2022-08-11T08:15:15.505Z,18.68
2022-08-11T08:16:15.578Z,18.72
2022-08-11T08:17:15.632Z,18.73
2022-08-11T08:18:26.675Z,18.74
2022-08-11T08:19:15.817Z,18.76
2022-08-11T08:20:15.863Z,18.80
2022-08-11T08:21:15.946Z,18.82
2022-08-11T08:22:38.469Z,18.82
2022-08-11T08:23:16.163Z,18.82
2022-08-11T08:24:16.222Z,18.86
2022-08-11T08:25:16.359Z,18.91
2022-08-11T08:26:16.999Z,18.92
2022-08-11T08:27:16.439Z,18.95
2022-08-11T08:28:16.524Z,18.97
2022-08-11T08:29:16.601Z,18.99
2022-08-11T08:30:16.657Z,19.02
2022-08-11T08:31:16.739Z,19.05
2022-08-11T08:32:16.844Z,19.08
2022-08-11T08:33:16.956Z,19.11
2022-08-11T08:34:17.025Z,19.13
2022-08-11T08:35:17.097Z,19.15
2022-08-11T08:36:17.222Z,19.18
2022-08-11T08:37:45.600Z,19.20
2022-08-11T08:38:17.680Z,19.23
2022-08-11T08:39:18.193Z,19.24
2022-08-11T08:40:17.495Z,19.25
2022-08-11T08:41:17.595Z,19.31
2022-08-11T08:42:17.763Z,19.32
2022-08-11T08:43:17.825Z,19.36
2022-08-11T08:45:17.937Z,19.40
2022-08-11T08:46:17.984Z,19.46
2022-08-11T08:47:43.155Z,19.46
2022-08-11T08:48:18.243Z,19.47
2022-08-11T08:49:18.308Z,19.50
2022-08-11T08:50:18.357Z,19.51
2022-08-11T08:51:18.440Z,19.54
2022-08-11T08:52:21.735Z,19.54
2022-08-11T08:53:18.633Z,19.57
2022-08-11T08:54:18.711Z,19.58
2022-08-11T08:55:18.779Z,19.58
2022-08-11T08:56:18.818Z,19.60
2022-08-11T08:57:18.926Z,19.61
2022-08-11T08:58:19.061Z,19.65
2022-08-11T08:59:19.097Z,19.66
2022-08-11T09:00:23.028Z,19.69
2022-08-11T09:01:19.304Z,19.72
2022-08-11T09:02:19.386Z,19.75
2022-08-11T09:04:21.026Z,19.75
2022-08-11T09:05:19.597Z,19.78
2022-08-11T09:06:19.716Z,19.80
2022-08-11T09:07:19.751Z,19.83
2022-08-11T09:08:19.874Z,19.84
2022-08-11T09:09:19.909Z,19.87
2022-08-11T09:10:20.080Z,19.88
2022-08-11T09:11:20.071Z,19.93
2022-08-11T09:12:38.373Z,19.93
2022-08-11T09:13:20.251Z,19.95
2022-08-11T09:14:20.338Z,20.00
2022-08-11T09:15:20.421Z,20.02
2022-08-11T09:16:20.501Z,20.03
2022-08-11T09:17:20.611Z,20.05
2022-08-11T09:18:20.673Z,20.09
2022-08-11T09:19:20.729Z,20.10
2022-08-11T09:20:20.921Z,20.13
2022-08-11T09:21:39.372Z,20.15
2022-08-11T09:22:20.983Z,20.16
2022-08-11T09:24:26.164Z,20.18
2022-08-11T11:06:30.485Z,19.80
2022-08-11T11:07:31.553Z,19.88
2022-08-11T11:08:31.613Z,20.00
2022-08-11T11:09:31.675Z,20.13
2022-08-11T11:10:31.767Z,20.33
2022-08-11T11:11:31.856Z,20.50
2022-08-11T11:12:31.943Z,20.66
2022-08-11T11:13:32.059Z,20.83
2022-08-11T11:14:32.115Z,20.98
2022-08-11T11:15:32.209Z,21.09
2022-08-11T11:16:32.312Z,21.24
2022-08-11T11:17:32.402Z,21.36
2022-08-11T11:18:32.473Z,21.48
2022-08-11T12:11:28.558Z,22.46
2022-08-11T12:12:29.595Z,22.53
2022-08-11T12:13:29.614Z,22.62
2022-08-11T12:14:29.723Z,22.71
2022-08-11T12:15:30.848Z,22.82
2022-08-11T12:16:39.685Z,22.90
2022-08-11T12:17:30.013Z,22.99
2022-08-11T12:18:30.018Z,23.08
2022-08-11T12:19:35.510Z,23.14
2022-08-11T12:20:32.010Z,23.20
2022-08-11T12:21:30.224Z,23.24
2022-08-11T12:22:30.322Z,23.29
2022-08-11T12:23:30.493Z,23.35
2022-08-11T12:24:30.481Z,23.40
2022-08-11T12:25:30.565Z,23.42
2022-08-11T12:26:30.656Z,23.45
2022-08-11T12:39:24.336Z,22.49
2022-08-11T12:41:30.509Z,22.49
2022-08-11T12:41:36.071Z,22.52
2022-08-11T12:42:36.005Z,22.59
2022-08-11T12:43:39.032Z,22.68
2022-08-11T12:44:36.173Z,22.75
2022-08-11T12:45:36.218Z,22.86
2022-08-11T12:46:36.301Z,22.92
2022-08-11T12:47:36.403Z,22.99
2022-08-11T12:48:59.536Z,23.07
2022-08-11T12:49:38.150Z,23.12
2022-08-11T12:50:36.672Z,23.20
2022-08-11T12:52:01.449Z,23.24
2022-08-11T12:52:36.858Z,23.31
2022-08-11T12:53:36.926Z,23.35
2022-08-11T12:54:36.989Z,23.42
2022-08-11T12:55:37.161Z,23.45
2022-08-11T12:58:12.088Z,23.50
2022-08-11T12:59:13.154Z,23.50
2022-08-11T13:00:13.262Z,23.53
2022-08-11T13:01:13.469Z,23.58
2022-08-11T13:02:13.383Z,23.61
2022-08-11T13:03:14.092Z,23.65
2022-08-11T13:04:21.091Z,23.70
2022-08-11T13:05:13.657Z,23.71
2022-08-11T13:06:13.779Z,23.72
2022-08-11T13:07:13.778Z,23.77
2022-08-11T13:08:13.993Z,23.82
2022-08-11T13:09:13.956Z,23.86
2022-08-11T13:10:16.781Z,23.92
2022-08-11T13:11:14.123Z,23.98
2022-08-11T13:12:14.206Z,24.01
2022-08-11T13:13:52.439Z,24.02
2022-08-11T13:14:15.382Z,24.04
2022-08-11T13:15:14.490Z,24.07
2022-08-11T13:16:14.548Z,24.08
2022-08-11T13:17:14.625Z,24.08
2022-08-11T13:18:14.725Z,24.12
2022-08-11T13:19:14.779Z,24.16
2022-08-11T13:20:14.896Z,24.19
2022-08-11T13:21:20.655Z,24.23
2022-08-11T13:22:15.020Z,24.27
2022-08-11T13:23:15.101Z,24.32
2022-08-11T13:24:15.192Z,24.37
2022-08-11T13:25:15.327Z,24.39
2022-08-11T13:26:15.377Z,24.44
2022-08-11T13:27:15.469Z,24.44
2022-08-11T13:28:15.556Z,24.47
2022-08-11T13:29:15.638Z,24.50
2022-08-11T13:30:15.738Z,24.52
2022-08-11T13:31:15.774Z,24.57
2022-08-11T13:32:15.854Z,24.59
2022-08-11T13:33:15.980Z,24.59
2022-08-11T13:34:16.054Z,24.61
2022-08-11T13:35:16.116Z,24.63
2022-08-11T13:36:16.225Z,24.67
2022-08-11T13:37:16.292Z,24.71
2022-08-11T13:38:27.578Z,24.73
2022-08-11T13:39:16.532Z,24.76
2022-08-11T13:40:20.383Z,24.77
2022-08-11T13:41:16.608Z,24.79
2022-08-11T13:42:16.721Z,24.80
2022-08-11T13:43:16.795Z,24.79
2022-08-11T13:44:20.434Z,24.79
2022-08-11T13:45:16.947Z,24.76
2022-08-11T13:46:16.989Z,24.76
2022-08-11T13:47:17.055Z,24.77
2022-08-11T13:48:17.171Z,24.77
2022-08-11T13:49:17.246Z,24.80
2022-08-11T13:50:17.359Z,24.80
2022-08-11T13:51:17.373Z,24.82
2022-08-11T13:52:17.451Z,24.82
2022-08-11T13:53:17.541Z,24.82
2022-08-11T13:54:17.603Z,24.83
2022-08-11T13:55:51.629Z,24.80
2022-08-11T13:56:17.812Z,24.79
2022-08-11T13:58:08.813Z,24.79
2022-08-11T13:58:39.589Z,24.79
2022-08-11T13:59:18.002Z,24.77
2022-08-11T14:00:28.076Z,24.77
2022-08-11T14:02:20.234Z,24.77
2022-08-11T14:02:31.220Z,24.77
2022-08-11T14:03:18.416Z,24.79
2022-08-11T14:04:30.389Z,24.82
2022-08-11T14:05:18.515Z,24.83
2022-08-11T14:06:18.555Z,24.85
2022-08-11T14:07:18.634Z,24.87
2022-08-11T14:08:37.095Z,24.90
2022-08-11T14:09:18.798Z,24.92
2022-08-11T14:10:18.931Z,24.94
2022-08-11T14:12:20.492Z,24.97
2022-08-11T14:12:28.515Z,24.98
2022-08-11T14:13:19.097Z,25.00
2022-08-11T14:14:19.132Z,25.05
2022-08-11T14:15:19.256Z,25.07
2022-08-11T14:16:19.325Z,25.12
2022-08-11T14:17:47.104Z,25.16
2022-08-11T14:18:19.443Z,25.17
2022-08-11T14:19:19.517Z,25.19
2022-08-11T14:20:39.288Z,25.17
2022-08-11T14:21:19.715Z,25.16
2022-08-11T14:22:19.798Z,25.15
2022-08-11T14:23:19.839Z,25.13
2022-08-11T14:24:19.943Z,25.12
2022-08-11T14:25:20.041Z,25.10
2022-08-11T14:26:20.102Z,25.12
2022-08-11T14:28:30.904Z,25.12
2022-08-11T14:28:44.432Z,25.12
2022-08-11T14:30:20.443Z,25.12
2022-08-11T14:31:20.523Z,25.13
2022-08-11T14:32:20.628Z,25.13
2022-08-11T14:33:20.710Z,25.15
2022-08-11T14:34:20.856Z,25.17
2022-08-11T14:35:20.887Z,25.16
2022-08-11T14:36:20.987Z,25.16
2022-08-11T14:37:21.077Z,25.17
2022-08-11T14:38:21.157Z,25.17
2022-08-11T14:39:21.277Z,25.19
2022-08-11T14:40:21.343Z,25.19
2022-08-11T14:41:21.450Z,25.17
2022-08-11T14:42:21.492Z,25.16
2022-08-11T14:43:21.566Z,25.17
2022-08-11T14:44:21.670Z,25.19
2022-08-11T14:45:22.722Z,25.22
2022-08-11T14:46:21.860Z,25.24
2022-08-11T14:47:24.274Z,25.22
2022-08-11T14:48:21.966Z,25.25
2022-08-11T14:49:22.071Z,25.25
2022-08-11T14:50:22.132Z,25.25
2022-08-11T14:51:22.233Z,25.27
2022-08-11T14:52:22.299Z,25.27
2022-08-11T14:53:22.373Z,25.28
2022-08-11T14:54:22.461Z,25.31
2022-08-11T14:55:22.529Z,25.32
2022-08-11T14:56:22.634Z,25.31
2022-08-11T14:57:54.257Z,25.34
2022-08-11T14:58:22.777Z,25.37
2022-08-11T14:59:22.872Z,25.37
2022-08-11T15:00:22.949Z,25.39
2022-08-11T15:01:23.312Z,25.42
2022-08-11T15:02:23.107Z,25.44
2022-08-11T15:03:27.971Z,25.46
2022-08-11T15:04:36.315Z,25.49
2022-08-11T15:05:23.366Z,25.50
2022-08-11T15:06:23.470Z,25.53
2022-08-11T15:07:23.509Z,25.54
2022-08-11T15:08:23.600Z,25.56
2022-08-11T15:09:23.691Z,25.57
2022-08-11T15:10:23.786Z,25.59
2022-08-11T15:11:23.861Z,25.59
2022-08-11T15:12:32.153Z,25.61
2022-08-11T15:13:23.990Z,25.59
2022-08-11T15:14:24.043Z,25.61
2022-08-11T15:15:24.123Z,25.61
2022-08-11T15:16:24.239Z,25.59
2022-08-11T15:17:24.275Z,25.57
2022-08-11T15:18:24.368Z,25.57
2022-08-11T15:19:24.440Z,25.57
2022-08-11T15:20:24.539Z,25.56
2022-08-11T15:21:24.603Z,25.54
2022-08-11T15:22:27.849Z,25.59
2022-08-11T15:23:24.718Z,25.57
2022-08-11T15:24:24.795Z,25.57
2022-08-11T15:25:24.858Z,25.59
2022-08-11T15:26:24.992Z,25.61
2022-08-11T15:27:25.039Z,25.62
2022-08-11T15:28:25.120Z,25.64
2022-08-11T15:29:25.193Z,25.64
2022-08-11T15:30:33.863Z,25.64
2022-08-11T15:31:25.397Z,25.61
2022-08-11T15:32:25.447Z,25.59
2022-08-11T15:33:25.574Z,25.54
2022-08-11T15:34:25.614Z,25.54
2022-08-11T15:50:49.313Z,24.77
2022-08-11T17:16:03.858Z,23.60
2022-08-11T17:17:04.986Z,23.61
2022-08-11T17:18:05.001Z,23.64
2022-08-11T17:19:05.029Z,23.67
2022-08-11T17:28:54.255Z,23.65
2022-08-11T17:29:55.556Z,23.70
2022-08-11T17:35:07.424Z,23.67
2022-08-11T17:57:23.847Z,23.38
2022-08-11T17:58:21.982Z,23.39
2022-08-11T17:59:22.312Z,23.42
2022-08-11T18:03:13.180Z,23.50
2022-08-11T20:01:12.087Z,21.69
2022-08-11T20:31:47.223Z,21.54
2022-08-11T21:06:08.198Z,21.19
2022-08-11T21:41:52.767Z,20.69
2022-08-11T21:42:57.123Z,20.69
2022-08-11T21:48:02.001Z,20.65
2022-08-11T21:52:05.490Z,20.59
2022-08-11T21:53:05.799Z,20.59
2022-08-11T21:54:05.864Z,20.62
2022-08-11T21:55:05.926Z,20.66
2022-08-11T21:56:06.009Z,20.69
2022-08-11T21:57:06.419Z,20.71
2022-08-11T23:01:36.663Z,19.88
2022-08-11T23:02:37.764Z,19.93
2022-08-11T23:13:31.275Z,20.02
2022-08-11T23:14:32.262Z,20.05
2022-08-11T23:15:32.403Z,20.08
2022-08-11T23:16:32.366Z,20.10
2022-08-11T23:17:32.465Z,20.16
2022-08-11T23:18:32.627Z,20.20
2022-08-11T23:20:04.638Z,20.24
2022-08-11T23:20:33.049Z,20.25
2022-08-11T23:21:32.867Z,20.31
2022-08-11T23:22:49.118Z,20.34
2022-08-11T23:23:33.016Z,20.35
2022-08-11T23:24:33.123Z,20.39
2022-08-11T23:25:33.312Z,20.42
2022-08-11T23:26:33.291Z,20.46
2022-08-11T23:27:33.346Z,20.49
2022-08-11T23:28:33.451Z,20.50
2022-08-11T23:29:33.503Z,20.51
2022-08-11T23:30:33.621Z,20.50
2022-08-11T23:31:50.455Z,20.51
2022-08-11T23:32:33.818Z,20.51
2022-08-11T23:33:33.837Z,20.51
2022-08-11T23:35:02.264Z,20.49
2022-08-11T23:35:53.648Z,20.49
2022-08-11T23:36:46.331Z,20.50
2022-08-11T23:37:34.142Z,20.49
2022-08-11T23:38:34.236Z,20.49
2022-08-11T23:39:34.466Z,20.50
2022-08-11T23:40:34.407Z,20.49
2022-08-11T23:41:34.498Z,20.50
2022-08-11T23:42:36.197Z,20.51
2022-08-11T23:43:34.677Z,20.54
2022-08-11T23:44:34.691Z,20.53
2022-08-11T23:45:34.849Z,20.51
2022-08-11T23:46:34.911Z,20.51
2022-08-11T23:47:50.404Z,20.53
2022-08-11T23:48:35.023Z,20.53
2022-08-11T23:49:35.203Z,20.54
2022-08-11T23:50:35.257Z,20.50
2022-08-11T23:51:40.884Z,20.47
2022-08-11T23:52:35.372Z,20.43
2022-08-11T23:53:35.456Z,20.39
2022-08-11T23:54:37.592Z,20.38
2022-08-11T23:55:35.625Z,20.38
2022-08-11T23:56:35.737Z,20.38
2022-08-11T23:57:35.801Z,20.39
2022-08-11T23:58:35.842Z,20.39
2022-08-11T23:59:35.921Z,20.38
